createdAt,value
2022-11-19T00:00:44.953Z,0.07
2022-11-19T00:01:49.060Z,0.06
2022-11-19T00:02:53.081Z,0.05
2022-11-19T00:03:57.192Z,0.08
2022-11-19T00:05:01.315Z,0.13
2022-11-19T00:06:05.526Z,0.19
2022-11-19T00:07:09.691Z,0.22
2022-11-19T00:08:13.902Z,0.23
2022-11-19T00:09:18.392Z,0.25
2022-11-19T00:10:22.150Z,0.28
2022-11-19T00:11:26.170Z,0.33
2022-11-19T00:12:30.304Z,0.39
2022-11-19T00:13:34.416Z,0.43
2022-11-19T00:14:38.623Z,0.46
2022-11-19T00:15:42.801Z,0.48
2022-11-19T00:16:46.973Z,0.49
2022-11-19T00:17:51.116Z,0.46
2022-11-19T00:18:55.156Z,0.40
2022-11-19T00:19:59.243Z,0.33
2022-11-19T00:21:03.344Z,0.27
2022-11-19T00:22:07.376Z,0.19
2022-11-19T00:23:11.628Z,0.12
2022-11-19T00:24:15.721Z,0.04
2022-11-19T00:25:19.728Z,0.01
2022-11-19T00:26:23.926Z,0.03
2022-11-19T00:27:28.124Z,0.07
2022-11-19T00:28:32.195Z,0.12
2022-11-19T00:29:36.392Z,0.16
2022-11-19T00:30:47.962Z,0.21
2022-11-19T00:31:44.729Z,0.25
2022-11-19T00:32:48.703Z,0.25
2022-11-19T00:33:52.821Z,0.26
2022-11-19T00:34:56.889Z,0.27
2022-11-19T00:36:01.025Z,0.27
2022-11-19T00:37:05.352Z,0.27
2022-11-19T00:38:09.564Z,0.30
2022-11-19T00:39:13.475Z,0.31
2022-11-19T00:40:17.609Z,0.34
2022-11-19T00:41:21.835Z,0.35
2022-11-19T00:42:25.988Z,0.35
2022-11-19T00:43:30.047Z,0.35
2022-11-19T00:44:37.399Z,0.36
2022-11-19T00:45:38.444Z,0.39
2022-11-19T00:46:42.615Z,0.40
2022-11-19T00:47:46.778Z,0.43
2022-11-19T00:48:50.820Z,0.44
2022-11-19T00:49:55.076Z,0.44
2022-11-19T00:50:59.300Z,0.43
2022-11-19T00:52:03.183Z,0.41
2022-11-19T00:53:07.412Z,0.39
2022-11-19T00:54:11.370Z,0.32
2022-11-19T00:55:15.635Z,0.24
2022-11-19T00:56:19.800Z,0.16
2022-11-19T00:57:23.829Z,0.09
2022-11-19T00:58:27.918Z,0.06
2022-11-19T00:59:32.133Z,0.07
2022-11-19T01:00:36.164Z,0.10
2022-11-19T01:01:40.561Z,0.13
2022-11-19T01:02:44.435Z,0.13
2022-11-19T01:03:48.653Z,0.07
2022-11-19T01:04:52.795Z,-0.01
2022-11-19T01:05:56.959Z,-0.09
2022-11-19T01:07:01.206Z,-0.19
2022-11-19T01:08:05.051Z,-0.30
2022-11-19T01:09:09.338Z,-0.36
2022-11-19T01:10:13.424Z,-0.41
2022-11-19T01:11:17.612Z,-0.47
2022-11-19T01:12:21.733Z,-0.54
2022-11-19T01:13:25.795Z,-0.60
2022-11-19T01:14:29.777Z,-0.62
2022-11-19T01:15:34.043Z,-0.59
2022-11-19T01:16:38.165Z,-0.57
2022-11-19T01:17:42.409Z,-0.57
2022-11-19T01:18:46.492Z,-0.60
2022-11-19T01:19:50.625Z,-0.62
2022-11-19T01:20:54.812Z,-0.63
2022-11-19T01:21:59.085Z,-0.60
2022-11-19T01:23:03.155Z,-0.55
2022-11-19T01:24:07.182Z,-0.48
2022-11-19T01:25:11.248Z,-0.42
2022-11-19T01:26:15.511Z,-0.34
2022-11-19T01:27:22.658Z,-0.26
2022-11-19T01:28:25.835Z,-0.18
2022-11-19T01:29:30.053Z,-0.12
2022-11-19T01:30:34.080Z,-0.07
2022-11-19T01:31:38.159Z,-0.04
2022-11-19T01:32:42.317Z,-0.04
2022-11-19T01:33:46.578Z,-0.03
2022-11-19T01:34:50.715Z,-0.01
2022-11-19T01:35:54.683Z,0.01
2022-11-19T01:36:58.958Z,0.01
2022-11-19T01:38:02.996Z,0.00
2022-11-19T01:39:07.168Z,-0.02
2022-11-19T01:40:11.238Z,-0.02
2022-11-19T01:41:15.595Z,-0.02
2022-11-19T01:42:19.607Z,-0.07
2022-11-19T01:43:23.902Z,-0.09
2022-11-19T01:44:28.011Z,-0.08
2022-11-19T01:45:32.131Z,-0.07
2022-11-19T01:46:36.255Z,-0.09
2022-11-19T01:47:40.205Z,-0.11
2022-11-19T01:48:44.576Z,-0.12
2022-11-19T01:49:48.769Z,-0.10
2022-11-19T01:50:52.849Z,-0.08
2022-11-19T01:51:57.054Z,-0.10
2022-11-19T01:53:01.167Z,-0.14
2022-11-19T01:54:05.133Z,-0.19
2022-11-19T01:55:09.551Z,-0.21
2022-11-19T01:56:13.615Z,-0.20
2022-11-19T01:57:17.876Z,-0.17
2022-11-19T01:58:21.801Z,-0.15
2022-11-19T01:59:26.031Z,-0.16
2022-11-19T02:00:30.193Z,-0.18
2022-11-19T02:01:34.631Z,-0.19
2022-11-19T02:02:38.654Z,-0.18
2022-11-19T02:03:42.799Z,-0.16
2022-11-19T02:04:46.944Z,-0.13
2022-11-19T02:05:51.215Z,-0.11
2022-11-19T02:06:55.342Z,-0.09
2022-11-19T02:07:59.255Z,-0.10
2022-11-19T02:09:03.464Z,-0.11
2022-11-19T02:10:07.544Z,-0.13
2022-11-19T02:11:11.578Z,-0.14
2022-11-19T02:12:15.828Z,-0.17
2022-11-19T02:13:19.787Z,-0.18
2022-11-19T02:14:23.940Z,-0.19
2022-11-19T02:15:28.041Z,-0.16
2022-11-19T02:16:32.151Z,-0.12
2022-11-19T02:17:36.485Z,-0.08
2022-11-19T02:18:40.508Z,-0.05
2022-11-19T02:19:44.754Z,-0.03
2022-11-19T02:20:48.802Z,-0.01
2022-11-19T02:21:52.828Z,0.02
2022-11-19T02:22:57.172Z,0.06
2022-11-19T02:24:01.213Z,0.10
2022-11-19T02:25:05.237Z,0.09
2022-11-19T02:26:09.400Z,0.06
2022-11-19T02:27:13.732Z,0.02
2022-11-19T02:28:17.661Z,0.00
2022-11-19T02:29:22.112Z,-0.02
2022-11-19T02:30:25.897Z,-0.06
2022-11-19T02:31:30.092Z,-0.06
2022-11-19T02:32:34.277Z,-0.02
2022-11-19T02:33:38.357Z,0.04
2022-11-19T02:34:43.359Z,0.09
2022-11-19T02:35:47.288Z,0.08
2022-11-19T02:36:51.279Z,0.06
2022-11-19T02:37:55.581Z,0.06
2022-11-19T02:38:59.594Z,0.11
2022-11-19T02:40:03.774Z,0.16
2022-11-19T02:41:07.747Z,0.22
2022-11-19T02:42:11.910Z,0.27
2022-11-19T02:43:15.932Z,0.33
2022-11-19T02:44:20.242Z,0.38
2022-11-19T02:45:24.410Z,0.41
2022-11-19T02:46:28.668Z,0.44
2022-11-19T02:47:32.779Z,0.47
2022-11-19T02:48:36.847Z,0.48
2022-11-19T02:49:41.066Z,0.50
2022-11-19T02:50:45.128Z,0.53
2022-11-19T02:51:49.342Z,0.56
2022-11-19T02:52:53.567Z,0.59
2022-11-19T02:53:57.704Z,0.61
2022-11-19T02:55:01.883Z,0.63
2022-11-19T02:56:05.845Z,0.65
2022-11-19T02:57:10.247Z,0.67
2022-11-19T02:58:14.417Z,0.69
2022-11-19T02:59:19.049Z,0.70
2022-11-19T03:00:22.789Z,0.71
2022-11-19T03:01:26.974Z,0.74
2022-11-19T03:02:31.052Z,0.76
2022-11-19T03:03:35.223Z,0.76
2022-11-19T03:04:39.406Z,0.74
2022-11-19T03:05:43.485Z,0.74
2022-11-19T03:06:47.593Z,0.69
2022-11-19T03:07:51.807Z,0.65
2022-11-19T03:08:55.974Z,0.65
2022-11-19T03:10:00.194Z,0.66
2022-11-19T03:11:04.250Z,0.68
2022-11-19T03:12:08.279Z,0.69
2022-11-19T03:13:12.656Z,0.67
2022-11-19T03:14:16.562Z,0.63
2022-11-19T03:15:20.801Z,0.63
2022-11-19T03:16:24.919Z,0.64
2022-11-19T03:17:29.145Z,0.67
2022-11-19T03:18:33.257Z,0.69
2022-11-19T03:19:37.370Z,0.72
2022-11-19T03:20:41.510Z,0.69
2022-11-19T03:21:45.724Z,0.68
2022-11-19T03:22:49.904Z,0.69
2022-11-19T03:23:53.981Z,0.70
2022-11-19T03:24:58.276Z,0.72
2022-11-19T03:26:02.328Z,0.74
2022-11-19T03:27:06.616Z,0.76
2022-11-19T03:28:10.732Z,0.74
2022-11-19T03:29:14.733Z,0.72
2022-11-19T03:30:18.884Z,0.72
2022-11-19T03:31:23.026Z,0.73
2022-11-19T03:32:27.132Z,0.74
2022-11-19T03:33:31.347Z,0.76
2022-11-19T03:34:35.424Z,0.78
2022-11-19T03:35:39.747Z,0.80
2022-11-19T03:36:43.975Z,0.79
2022-11-19T03:37:48.033Z,0.77
2022-11-19T03:38:52.350Z,0.76
2022-11-19T03:39:56.286Z,0.76
2022-11-19T03:41:00.520Z,0.77
2022-11-19T03:42:04.598Z,0.77
2022-11-19T03:43:08.853Z,0.78
2022-11-19T03:44:13.005Z,0.77
2022-11-19T03:45:17.167Z,0.71
2022-11-19T03:46:21.219Z,0.65
2022-11-19T03:47:25.472Z,0.60
2022-11-19T03:48:29.442Z,0.57
2022-11-19T03:49:33.724Z,0.54
2022-11-19T03:50:37.747Z,0.53
2022-11-19T03:51:41.962Z,0.52
2022-11-19T03:52:46.129Z,0.52
2022-11-19T03:53:50.297Z,0.52
2022-11-19T03:54:54.321Z,0.53
2022-11-19T03:55:59.462Z,0.54
2022-11-19T03:57:03.194Z,0.55
2022-11-19T03:58:07.405Z,0.56
2022-11-19T03:59:11.485Z,0.57
2022-11-19T04:00:15.514Z,0.57
2022-11-19T04:01:19.743Z,0.57
2022-11-19T04:02:23.744Z,0.57
2022-11-19T04:03:28.063Z,0.58
2022-11-19T04:04:31.984Z,0.56
2022-11-19T04:05:36.151Z,0.50
2022-11-19T04:06:40.263Z,0.46
2022-11-19T04:07:44.354Z,0.44
2022-11-19T04:08:48.468Z,0.40
2022-11-19T04:09:52.687Z,0.39
2022-11-19T04:10:56.901Z,0.40
2022-11-19T04:12:00.960Z,0.40
2022-11-19T04:13:07.951Z,0.40
2022-11-19T04:14:11.214Z,0.40
2022-11-19T04:15:15.253Z,0.42
2022-11-19T04:16:19.370Z,0.45
2022-11-19T04:17:23.472Z,0.48
2022-11-19T04:18:27.685Z,0.51
2022-11-19T04:19:31.744Z,0.53
2022-11-19T04:20:35.927Z,0.57
2022-11-19T04:21:40.038Z,0.60
2022-11-19T04:22:44.209Z,0.64
2022-11-19T04:23:48.295Z,0.67
2022-11-19T04:24:52.387Z,0.66
2022-11-19T04:25:56.504Z,0.66
2022-11-19T04:27:00.654Z,0.68
2022-11-19T04:28:04.774Z,0.71
2022-11-19T04:29:08.887Z,0.74
2022-11-19T04:30:13.112Z,0.77
2022-11-19T04:31:18.190Z,0.78
2022-11-19T04:32:21.266Z,0.78
2022-11-19T04:33:25.485Z,0.76
2022-11-19T04:34:29.682Z,0.75
2022-11-19T04:35:33.790Z,0.74
2022-11-19T04:36:37.852Z,0.75
2022-11-19T04:37:42.047Z,0.75
2022-11-19T04:38:46.120Z,0.76
2022-11-19T04:39:50.283Z,0.77
2022-11-19T04:40:54.416Z,0.78
2022-11-19T04:41:58.551Z,0.79
2022-11-19T04:43:02.787Z,0.80
2022-11-19T04:44:09.859Z,0.82
2022-11-19T04:45:12.968Z,0.84
2022-11-19T04:46:17.103Z,0.86
2022-11-19T04:47:21.279Z,0.88
2022-11-19T04:48:25.510Z,0.90
2022-11-19T04:49:29.679Z,0.93
2022-11-19T04:50:33.718Z,0.95
2022-11-19T04:51:37.880Z,0.96
2022-11-19T04:52:42.098Z,0.97
2022-11-19T04:53:46.182Z,0.98
2022-11-19T04:54:50.207Z,1.00
2022-11-19T04:55:54.508Z,1.02
2022-11-19T04:56:58.598Z,1.05
2022-11-19T04:58:02.688Z,1.07
2022-11-19T04:59:06.837Z,1.08
2022-11-19T05:00:11.062Z,1.08
2022-11-19T05:01:15.419Z,1.05
2022-11-19T05:02:19.379Z,1.02
2022-11-19T05:03:23.618Z,0.97
2022-11-19T05:04:27.632Z,0.93
2022-11-19T05:05:31.761Z,0.90
2022-11-19T05:06:35.996Z,0.89
2022-11-19T05:07:40.168Z,0.90
2022-11-19T05:08:44.132Z,0.90
2022-11-19T05:09:48.306Z,0.88
2022-11-19T05:10:52.417Z,0.87
2022-11-19T05:11:56.755Z,0.84
2022-11-19T05:13:00.856Z,0.82
2022-11-19T05:14:04.981Z,0.78
2022-11-19T05:15:09.091Z,0.75
2022-11-19T05:16:13.230Z,0.76
2022-11-19T05:17:17.460Z,0.77
2022-11-19T05:18:21.718Z,0.80
2022-11-19T05:19:25.745Z,0.84
2022-11-19T05:20:29.974Z,0.88
2022-11-19T05:21:34.140Z,0.91
2022-11-19T05:22:38.319Z,0.94
2022-11-19T05:23:42.452Z,0.97
2022-11-19T05:24:46.520Z,1.01
2022-11-19T05:25:50.659Z,1.03
2022-11-19T05:26:54.819Z,1.04
2022-11-19T05:27:59.110Z,1.03
2022-11-19T05:29:03.138Z,1.03
2022-11-19T05:30:07.343Z,1.05
2022-11-19T05:31:11.405Z,1.07
2022-11-19T05:32:15.521Z,1.09
2022-11-19T05:33:19.682Z,1.11
2022-11-19T05:34:23.844Z,1.14
2022-11-19T05:35:27.953Z,1.17
2022-11-19T05:36:32.104Z,1.20
2022-11-19T05:37:36.230Z,1.24
2022-11-19T05:38:40.317Z,1.26
2022-11-19T05:39:44.587Z,1.27
2022-11-19T05:40:48.782Z,1.24
2022-11-19T05:41:52.972Z,1.21
2022-11-19T05:42:57.120Z,1.19
2022-11-19T05:44:01.271Z,1.18
2022-11-19T05:45:05.377Z,1.19
2022-11-19T05:46:09.629Z,1.19
2022-11-19T05:47:13.774Z,1.20
2022-11-19T05:48:17.984Z,1.21
2022-11-19T05:49:22.312Z,1.23
2022-11-19T05:50:26.234Z,1.25
2022-11-19T05:51:30.391Z,1.27
2022-11-19T05:52:34.625Z,1.29
2022-11-19T05:53:38.720Z,1.30
2022-11-19T05:54:42.835Z,1.31
2022-11-19T05:55:47.021Z,1.31
2022-11-19T05:56:51.100Z,1.33
2022-11-19T05:57:55.180Z,1.34
2022-11-19T05:58:59.311Z,1.37
2022-11-19T06:00:03.576Z,1.38
2022-11-19T06:01:07.794Z,1.39
2022-11-19T06:02:11.898Z,1.40
2022-11-19T06:03:16.138Z,1.40
2022-11-19T06:04:20.307Z,1.42
2022-11-19T06:05:24.376Z,1.43
2022-11-19T06:06:28.572Z,1.42
2022-11-19T06:07:32.798Z,1.42
2022-11-19T06:08:36.992Z,1.42
2022-11-19T06:09:41.095Z,1.43
2022-11-19T06:10:45.233Z,1.45
2022-11-19T06:11:49.468Z,1.46
2022-11-19T06:12:53.487Z,1.46
2022-11-19T06:13:57.786Z,1.47
2022-11-19T06:15:01.972Z,1.49
2022-11-19T06:16:06.110Z,1.51
2022-11-19T06:17:10.279Z,1.53
2022-11-19T06:18:14.461Z,1.54
2022-11-19T06:19:18.815Z,1.55
2022-11-19T06:20:22.659Z,1.56
2022-11-19T06:21:26.795Z,1.57
2022-11-19T06:22:30.872Z,1.59
2022-11-19T06:23:35.058Z,1.58
2022-11-19T06:24:39.190Z,1.55
2022-11-19T06:25:43.409Z,1.53
2022-11-19T06:26:47.508Z,1.52
2022-11-19T06:27:51.630Z,1.52
2022-11-19T06:28:55.730Z,1.52
2022-11-19T06:31:08.721Z,1.53
2022-11-19T06:32:12.984Z,1.54
2022-11-19T06:33:17.031Z,1.54
2022-11-19T06:34:21.126Z,1.54
2022-11-19T06:35:25.250Z,1.53
2022-11-19T06:36:35.978Z,1.53
2022-11-19T06:37:33.605Z,1.53
2022-11-19T06:38:37.886Z,1.54
2022-11-19T06:39:41.883Z,1.55
2022-11-19T06:40:45.981Z,1.55
2022-11-19T06:41:50.169Z,1.55
2022-11-19T06:42:54.554Z,1.55
2022-11-19T06:43:58.465Z,1.55
2022-11-19T06:45:02.686Z,1.55
2022-11-19T06:46:06.787Z,1.56
2022-11-19T06:47:11.013Z,1.56
2022-11-19T06:48:15.083Z,1.56
2022-11-19T06:49:20.485Z,1.56
2022-11-19T06:50:23.373Z,1.56
2022-11-19T06:51:27.510Z,1.53
2022-11-19T06:52:31.634Z,1.47
2022-11-19T06:53:35.778Z,1.41
2022-11-19T06:54:42.975Z,1.33
2022-11-19T06:55:44.055Z,1.27
2022-11-19T06:56:48.233Z,1.26
2022-11-19T06:57:52.435Z,1.27
2022-11-19T06:58:56.467Z,1.28
2022-11-19T07:00:00.653Z,1.30
2022-11-19T07:01:04.747Z,1.33
2022-11-19T07:02:09.037Z,1.37
2022-11-19T07:03:13.041Z,1.40
2022-11-19T07:04:17.172Z,1.42
2022-11-19T07:05:21.287Z,1.43
2022-11-19T07:06:25.502Z,1.43
2022-11-19T07:07:29.861Z,1.45
2022-11-19T07:08:33.843Z,1.46
2022-11-19T07:09:37.940Z,1.48
2022-11-19T07:10:42.169Z,1.50
2022-11-19T07:11:52.276Z,1.50
2022-11-19T07:12:55.073Z,1.48
2022-11-19T07:13:59.284Z,1.44
2022-11-19T07:15:04.729Z,1.42
2022-11-19T07:16:07.535Z,1.42
2022-11-19T07:17:11.705Z,1.44
2022-11-19T07:18:15.803Z,1.47
2022-11-19T07:19:20.155Z,1.50
2022-11-19T07:20:24.032Z,1.50
2022-11-19T07:21:28.100Z,1.48
2022-11-19T07:22:32.285Z,1.44
2022-11-19T07:23:36.432Z,1.42
2022-11-19T07:24:40.602Z,1.43
2022-11-19T07:25:44.787Z,1.45
2022-11-19T07:26:48.994Z,1.50
2022-11-19T07:27:53.136Z,1.54
2022-11-19T07:29:01.765Z,1.59
2022-11-19T07:30:01.501Z,1.65
2022-11-19T07:31:05.665Z,1.69
2022-11-19T07:32:09.981Z,1.71
2022-11-19T07:33:14.054Z,1.74
2022-11-19T07:34:18.160Z,1.77
2022-11-19T07:35:22.362Z,1.79
2022-11-19T07:36:26.464Z,1.83
2022-11-19T07:37:30.701Z,1.84
2022-11-19T07:38:37.073Z,1.83
2022-11-19T07:39:39.188Z,1.85
2022-11-19T07:40:43.213Z,1.86
2022-11-19T07:41:47.376Z,1.88
2022-11-19T07:42:51.538Z,1.91
2022-11-19T07:43:55.711Z,1.94
2022-11-19T07:44:59.762Z,1.97
2022-11-19T07:46:03.927Z,1.98
2022-11-19T07:47:08.131Z,1.97
2022-11-19T07:48:12.192Z,1.98
2022-11-19T07:49:16.536Z,1.97
2022-11-19T07:50:20.641Z,1.97
2022-11-19T07:51:24.682Z,1.95
2022-11-19T07:52:28.806Z,1.95
2022-11-19T07:53:33.154Z,1.97
2022-11-19T07:54:37.278Z,2.00
2022-11-19T07:55:41.368Z,2.03
2022-11-19T07:56:45.617Z,2.07
2022-11-19T07:57:49.722Z,2.09
2022-11-19T07:58:53.906Z,2.11
2022-11-19T07:59:58.154Z,2.12
2022-11-19T08:01:05.239Z,2.14
2022-11-19T08:02:08.473Z,2.18
2022-11-19T08:03:12.640Z,2.21
2022-11-19T08:04:16.739Z,2.23
2022-11-19T08:05:20.849Z,2.25
2022-11-19T08:06:25.030Z,2.28
2022-11-19T08:07:29.171Z,2.30
2022-11-19T08:08:33.299Z,2.32
2022-11-19T08:09:37.464Z,2.33
2022-11-19T08:10:41.686Z,2.34
2022-11-19T08:11:45.888Z,2.36
2022-11-19T08:12:49.959Z,2.37
2022-11-19T08:13:54.290Z,2.39
2022-11-19T08:14:58.327Z,2.42
2022-11-19T08:16:02.511Z,2.43
2022-11-19T08:17:06.736Z,2.45
2022-11-19T08:18:10.821Z,2.48
2022-11-19T08:19:15.066Z,2.52
2022-11-19T08:20:19.120Z,2.53
2022-11-19T08:21:26.236Z,2.56
2022-11-19T08:22:29.619Z,2.58
2022-11-19T08:23:33.656Z,2.59
2022-11-19T08:24:37.932Z,2.62
2022-11-19T08:25:42.105Z,2.64
2022-11-19T08:26:46.118Z,2.64
2022-11-19T08:27:50.368Z,2.64
2022-11-19T08:28:54.592Z,2.66
2022-11-19T08:29:58.681Z,2.67
2022-11-19T08:31:02.924Z,2.67
2022-11-19T08:32:07.238Z,2.69
2022-11-19T08:33:11.501Z,2.72
2022-11-19T08:34:15.925Z,2.74
2022-11-19T08:35:19.757Z,2.78
2022-11-19T08:36:23.944Z,2.82
2022-11-19T08:37:28.072Z,2.85
2022-11-19T08:38:37.207Z,2.87
2022-11-19T08:39:36.417Z,2.88
2022-11-19T08:40:40.533Z,2.90
2022-11-19T08:41:44.678Z,2.89
2022-11-19T08:42:48.860Z,2.89
2022-11-19T08:43:52.950Z,2.88
2022-11-19T08:44:57.239Z,2.88
2022-11-19T08:46:01.439Z,2.87
2022-11-19T08:47:05.649Z,2.86
2022-11-19T08:48:09.749Z,2.87
2022-11-19T08:49:13.949Z,2.88
2022-11-19T08:50:21.152Z,2.90
2022-11-19T08:51:24.543Z,2.92
2022-11-19T08:52:28.569Z,2.97
2022-11-19T08:53:32.724Z,3.01
2022-11-19T08:54:37.008Z,3.03
2022-11-19T08:55:41.217Z,3.03
2022-11-19T08:56:45.498Z,3.03
2022-11-19T08:57:49.660Z,3.03
2022-11-19T08:58:56.291Z,3.03
2022-11-19T09:00:02.867Z,3.04
2022-11-19T09:01:02.230Z,3.05
2022-11-19T09:02:06.292Z,3.08
2022-11-19T09:03:10.468Z,3.13
2022-11-19T09:04:14.596Z,3.16
2022-11-19T09:05:18.715Z,3.19
2022-11-19T09:06:22.890Z,3.24
2022-11-19T09:07:27.124Z,3.28
2022-11-19T09:08:31.214Z,3.32
2022-11-19T09:09:35.383Z,3.37
2022-11-19T09:10:39.482Z,3.41
2022-11-19T09:11:43.782Z,3.44
2022-11-19T09:12:47.978Z,3.49
2022-11-19T09:13:52.033Z,3.52
2022-11-19T09:14:56.439Z,3.56
2022-11-19T09:16:00.509Z,3.60
2022-11-19T09:17:04.835Z,3.63
2022-11-19T09:18:08.993Z,3.65
2022-11-19T09:19:13.183Z,3.68
2022-11-19T09:20:17.318Z,3.70
2022-11-19T09:21:21.537Z,3.70
2022-11-19T09:22:25.784Z,3.72
2022-11-19T09:23:30.078Z,3.73
2022-11-19T09:24:34.221Z,3.76
2022-11-19T09:25:38.344Z,3.78
2022-11-19T09:26:42.514Z,3.80
2022-11-19T09:27:46.650Z,3.82
2022-11-19T09:28:50.809Z,3.81
2022-11-19T09:29:55.036Z,3.82
2022-11-19T09:30:59.120Z,3.81
2022-11-19T09:32:03.439Z,3.80
2022-11-19T09:33:07.566Z,3.78
2022-11-19T09:34:11.880Z,3.76
2022-11-19T09:35:16.012Z,3.75
2022-11-19T09:36:20.201Z,3.75
2022-11-19T09:37:24.451Z,3.74
2022-11-19T09:38:28.710Z,3.75
2022-11-19T09:39:32.911Z,3.76
2022-11-19T09:40:37.018Z,3.78
2022-11-19T09:41:41.162Z,3.80
2022-11-19T09:42:45.301Z,3.82
2022-11-19T09:43:49.482Z,3.84
2022-11-19T09:44:53.614Z,3.86
2022-11-19T09:45:57.718Z,3.86
2022-11-19T09:47:01.964Z,3.86
2022-11-19T09:48:06.178Z,3.87
2022-11-19T09:49:10.421Z,3.87
2022-11-19T09:50:14.527Z,3.87
2022-11-19T09:51:18.734Z,3.87
2022-11-19T09:52:22.970Z,3.88
2022-11-19T09:53:27.269Z,3.89
2022-11-19T09:54:31.503Z,3.92
2022-11-19T09:55:35.741Z,3.94
2022-11-19T09:56:39.879Z,3.96
2022-11-19T09:57:44.030Z,3.98
2022-11-19T09:58:48.341Z,4.00
2022-11-19T09:59:52.445Z,4.02
2022-11-19T10:00:56.772Z,4.03
2022-11-19T10:02:00.865Z,4.05
2022-11-19T10:03:05.140Z,4.06
2022-11-19T10:04:09.268Z,4.07
2022-11-19T10:05:13.483Z,4.09
2022-11-19T10:06:17.665Z,4.10
2022-11-19T10:07:22.060Z,4.11
2022-11-19T10:08:26.074Z,4.11
2022-11-19T10:09:30.361Z,4.12
2022-11-19T10:10:34.737Z,4.12
2022-11-19T10:11:38.826Z,4.13
2022-11-19T10:12:42.964Z,4.13
2022-11-19T10:13:50.081Z,4.13
2022-11-19T10:14:53.412Z,4.13
2022-11-19T10:15:57.658Z,4.14
2022-11-19T10:17:01.830Z,4.14
2022-11-19T10:18:06.059Z,4.15
2022-11-19T10:19:10.237Z,4.17
2022-11-19T10:20:14.313Z,4.17
2022-11-19T10:21:18.453Z,4.16
2022-11-19T10:22:22.622Z,4.14
2022-11-19T10:23:26.747Z,4.12
2022-11-19T10:24:30.977Z,4.10
2022-11-19T10:25:35.111Z,4.09
2022-11-19T10:26:39.306Z,4.09
2022-11-19T10:27:43.529Z,4.10
2022-11-19T10:28:47.637Z,4.09
2022-11-19T10:29:51.759Z,4.09
2022-11-19T10:30:55.915Z,4.10
2022-11-19T10:32:00.027Z,4.11
2022-11-19T10:33:04.242Z,4.12
2022-11-19T10:34:08.418Z,4.14
2022-11-19T10:35:12.567Z,4.15
2022-11-19T10:36:16.749Z,4.16
2022-11-19T10:37:20.959Z,4.18
2022-11-19T10:38:25.075Z,4.20
2022-11-19T10:39:29.305Z,4.21
2022-11-19T10:40:33.484Z,4.22
2022-11-19T10:41:37.687Z,4.23
2022-11-19T10:42:41.895Z,4.24
2022-11-19T10:43:46.117Z,4.25
2022-11-19T10:44:50.248Z,4.26
2022-11-19T10:45:54.390Z,4.26
2022-11-19T10:46:58.463Z,4.26
2022-11-19T10:48:08.656Z,4.25
2022-11-19T10:49:06.790Z,4.23
2022-11-19T10:50:11.527Z,4.23
2022-11-19T10:51:15.177Z,4.22
2022-11-19T10:52:19.240Z,4.22
2022-11-19T10:53:23.418Z,4.23
2022-11-19T10:54:27.599Z,4.23
2022-11-19T10:55:31.795Z,4.23
2022-11-19T10:56:35.976Z,4.23
2022-11-19T10:57:40.108Z,4.23
2022-11-19T10:58:44.401Z,4.22
2022-11-19T10:59:48.486Z,4.22
2022-11-19T11:00:52.692Z,4.21
2022-11-19T11:01:56.841Z,4.21
2022-11-19T11:03:01.133Z,4.22
2022-11-19T11:04:05.213Z,4.23
2022-11-19T11:05:09.387Z,4.23
2022-11-19T11:06:13.517Z,4.25
2022-11-19T11:07:17.750Z,4.26
2022-11-19T11:08:21.826Z,4.27
2022-11-19T11:09:25.989Z,4.30
2022-11-19T11:10:30.197Z,4.32
2022-11-19T11:11:34.355Z,4.34
2022-11-19T11:12:38.530Z,4.37
2022-11-19T11:13:42.687Z,4.40
2022-11-19T11:14:46.897Z,4.42
2022-11-19T11:15:51.044Z,4.44
2022-11-19T11:16:55.185Z,4.45
2022-11-19T11:17:59.339Z,4.46
2022-11-19T11:19:03.533Z,4.46
2022-11-19T11:20:07.737Z,4.46
2022-11-19T11:21:11.912Z,4.47
2022-11-19T11:22:16.053Z,4.48
2022-11-19T11:23:20.227Z,4.49
2022-11-19T11:24:24.523Z,4.49
2022-11-19T11:25:28.656Z,4.49
2022-11-19T11:26:32.725Z,4.48
2022-11-19T11:27:36.955Z,4.47
2022-11-19T11:28:41.098Z,4.48
2022-11-19T11:29:45.238Z,4.49
2022-11-19T11:30:49.552Z,4.50
2022-11-19T11:31:53.668Z,4.50
2022-11-19T11:32:57.852Z,4.51
2022-11-19T11:34:01.995Z,4.51
2022-11-19T11:35:09.027Z,4.52
2022-11-19T11:36:10.295Z,4.54
2022-11-19T11:37:14.579Z,4.53
2022-11-19T11:38:18.550Z,4.54
2022-11-19T11:39:22.812Z,4.53
2022-11-19T11:40:27.016Z,4.52
2022-11-19T11:42:04.186Z,4.51
2022-11-19T11:42:35.375Z,4.51
2022-11-19T11:43:39.571Z,4.51
2022-11-19T11:44:43.724Z,4.52
2022-11-19T11:45:48.003Z,4.52
2022-11-19T11:46:51.988Z,4.52
2022-11-19T11:47:56.249Z,4.52
2022-11-19T11:49:05.854Z,4.52
2022-11-19T11:50:04.552Z,4.52
2022-11-19T11:51:08.724Z,4.52
2022-11-19T11:52:12.786Z,4.53
2022-11-19T11:53:16.998Z,4.54
2022-11-19T11:54:21.169Z,4.53
2022-11-19T11:55:25.324Z,4.50
2022-11-19T11:56:29.503Z,4.49
2022-11-19T11:57:33.619Z,4.48
2022-11-19T11:58:37.810Z,4.48
2022-11-19T11:59:41.930Z,4.47
2022-11-19T12:00:46.149Z,4.46
2022-11-19T12:01:50.340Z,4.45
2022-11-19T12:02:54.577Z,4.45
2022-11-19T12:03:58.756Z,4.45
2022-11-19T12:05:02.797Z,4.44
2022-11-19T12:06:06.836Z,4.43
2022-11-19T12:07:11.276Z,4.42
2022-11-19T12:08:15.288Z,4.41
2022-11-19T12:09:19.587Z,4.40
2022-11-19T12:10:23.590Z,4.38
2022-11-19T12:11:27.791Z,4.37
2022-11-19T12:12:31.922Z,4.35
2022-11-19T12:13:36.092Z,4.33
2022-11-19T12:14:40.291Z,4.32
2022-11-19T12:15:44.701Z,4.32
2022-11-19T12:16:48.707Z,4.31
2022-11-19T12:17:52.831Z,4.33
2022-11-19T12:18:57.117Z,4.35
2022-11-19T12:20:01.204Z,4.35
2022-11-19T12:21:10.253Z,4.36
2022-11-19T12:22:09.550Z,4.36
2022-11-19T12:23:13.716Z,4.35
2022-11-19T12:24:17.885Z,4.34
2022-11-19T12:25:22.046Z,4.32
2022-11-19T12:26:26.250Z,4.31
2022-11-19T12:27:30.373Z,4.29
2022-11-19T12:28:34.555Z,4.28
2022-11-19T12:29:38.702Z,4.28
2022-11-19T12:30:42.873Z,4.28
2022-11-19T12:31:47.011Z,4.28
2022-11-19T12:32:51.171Z,4.29
2022-11-19T12:33:55.326Z,4.30
2022-11-19T12:34:59.552Z,4.31
2022-11-19T12:36:03.703Z,4.31
2022-11-19T12:37:07.880Z,4.30
2022-11-19T12:38:11.999Z,4.31
2022-11-19T12:39:16.180Z,4.32
2022-11-19T12:40:20.418Z,4.32
2022-11-19T12:41:24.505Z,4.33
2022-11-19T12:42:28.661Z,4.33
2022-11-19T12:43:32.799Z,4.33
2022-11-19T12:44:36.976Z,4.33
2022-11-19T12:45:41.099Z,4.33
2022-11-19T12:46:45.214Z,4.33
2022-11-19T12:47:49.377Z,4.34
2022-11-19T12:48:53.647Z,4.35
2022-11-19T12:49:57.727Z,4.36
2022-11-19T12:51:01.873Z,4.37
2022-11-19T12:52:06.018Z,4.37
2022-11-19T12:53:10.146Z,4.36
2022-11-19T12:54:16.469Z,4.35
2022-11-19T12:55:18.501Z,4.35
2022-11-19T12:56:22.773Z,4.34
2022-11-19T12:57:26.899Z,4.34
2022-11-19T12:58:31.019Z,4.34
2022-11-19T12:59:35.210Z,4.34
2022-11-19T13:00:41.111Z,4.33
2022-11-19T13:01:43.483Z,4.31
2022-11-19T13:02:47.632Z,4.31
2022-11-19T13:03:51.679Z,4.30
2022-11-19T13:04:55.984Z,4.27
2022-11-19T13:06:00.098Z,4.24
2022-11-19T13:07:04.353Z,4.23
2022-11-19T13:08:08.397Z,4.23
2022-11-19T13:09:12.543Z,4.23
2022-11-19T13:10:16.672Z,4.23
2022-11-19T13:11:20.739Z,4.24
2022-11-19T13:12:24.978Z,4.25
2022-11-19T13:13:29.191Z,4.24
2022-11-19T13:14:33.355Z,4.24
2022-11-19T13:15:37.485Z,4.21
2022-11-19T13:16:41.641Z,4.19
2022-11-19T13:17:45.793Z,4.17
2022-11-19T13:18:49.932Z,4.15
2022-11-19T13:19:54.084Z,4.14
2022-11-19T13:20:58.260Z,4.13
2022-11-19T13:22:02.405Z,4.12
2022-11-19T13:23:06.570Z,4.11
2022-11-19T13:24:10.675Z,4.10
2022-11-19T13:25:15.162Z,4.08
2022-11-19T13:26:19.069Z,4.07
2022-11-19T13:27:23.634Z,4.06
2022-11-19T13:28:27.402Z,4.04
2022-11-19T13:29:31.617Z,4.03
2022-11-19T13:30:35.828Z,4.02
2022-11-19T13:31:39.980Z,4.02
2022-11-19T13:32:44.129Z,4.02
2022-11-19T13:33:48.263Z,4.03
2022-11-19T13:34:52.421Z,4.05
2022-11-19T13:35:56.554Z,4.06
2022-11-19T13:37:00.701Z,4.07
2022-11-19T13:38:04.974Z,4.07
2022-11-19T13:39:09.099Z,4.06
2022-11-19T13:40:13.306Z,4.06
2022-11-19T13:41:17.398Z,4.05
2022-11-19T13:42:21.452Z,4.04
2022-11-19T13:43:32.049Z,4.04
2022-11-19T13:44:29.751Z,4.03
2022-11-19T13:45:33.936Z,4.02
2022-11-19T13:46:38.112Z,4.01
2022-11-19T13:47:42.292Z,4.01
2022-11-19T13:48:46.518Z,4.00
2022-11-19T13:49:50.742Z,3.99
2022-11-19T13:50:54.800Z,3.99
2022-11-19T13:51:58.977Z,3.99
2022-11-19T13:53:03.124Z,3.98
2022-11-19T13:54:07.276Z,3.97
2022-11-19T13:55:11.466Z,3.96
2022-11-19T13:56:15.592Z,3.95
2022-11-19T13:57:19.722Z,3.93
2022-11-19T13:58:23.968Z,3.90
2022-11-19T13:59:28.093Z,3.89
2022-11-19T14:00:32.254Z,3.88
2022-11-19T14:01:36.523Z,3.85
2022-11-19T14:02:40.505Z,3.85
2022-11-19T14:03:44.718Z,3.84
2022-11-19T14:04:48.859Z,3.83
2022-11-19T14:05:53.018Z,3.83
2022-11-19T14:06:57.168Z,3.81
2022-11-19T14:08:01.276Z,3.81
2022-11-19T14:09:05.458Z,3.80
2022-11-19T14:10:09.596Z,3.80
2022-11-19T14:11:13.804Z,3.79
2022-11-19T14:12:18.033Z,3.79
2022-11-19T14:13:22.126Z,3.79